Terminal Aerodrome Forecast
Issued by NWS

Home | Current Version | Previous Version | Graphics & Text | Print | Product List | Glossary On
Versions: 1 2 3 4 5 6 7 8 9 10 11 12 13 14 15 16 17 18 19 20 21 22 23 24 25 26 27 28 29 30 31 32
000
FTUS43 KBIS 230017 AAA
TAFMOT
TAF AMD
KMOT 230017Z 2300/2324 03012KT P6SM VCSH OVC025
      TEMPO 2300/2303 -RA OVC018
     FM230300 04010KT P6SM VCSH OVC018
     FM230800 06012KT 5SM -SN OVC015
      TEMPO 2308/2312 3SM -SN OVC008
     FM231200 06011G19KT P6SM VCSH OVC008
     FM231700 08015G21KT P6SM OVC015=

USA.gov is the U.S. government's official web portal to all federal, state and local government web resources and services.